Durango, Colorado
Current Conditions -  °F | °C
As of 10:53 AM on Saturday 25 Oct 2014 (Local Time) from KDRO Reporting Station
Clear Clear  
Wind Chill: 59°   Ceiling: Unl
Heat Index: 59°   Visibility: 10mi
Dew Point: 35°   Wind: 0mph
Humidity: 41%   Direction: NA
Pressure: 30.38"   Gusts: NA
Location:  37.27°N, 107.87°W
Report Text: KDRO 251653Z AUTO 00000KT 10SM CLR 15/02 A3038 RMK AO2 SLP243 T01500017
Loading
Personal Weather Stations






























Interactive Weather Map New forecast layout! Learn more

10-Day Weather Forecast

Advertisements
Track Severe Weather on mobile